NCAR-RAP Real-Time Weather Data

Output produced by METARs form (12 May 2021  11:35 UTC)
found at http://weather.rap.ucar.edu/surface/
 
KMCW 121053Z AUTO 21003KT 10SM CLR 00/M04 A3043 RMK AO2 SLP306 T00001044
KMCW 120953Z AUTO 00000KT 10SM CLR 01/M04 A3042 RMK AO2 SLP304 T00111039
KMCW 120853Z AUTO 00000KT 10SM CLR 01/M05 A3042 RMK AO2 SLP302 T00111050 51001
KMCW 120753Z AUTO 00000KT 10SM CLR 04/M04 A3042 RMK AO2 SLP301 T00391044
KMCW 120653Z AUTO 00000KT 10SM CLR 03/M05 A3042 RMK AO2 SLP301 T00331050
KMCW 120553Z AUTO 00000KT 10SM CLR 04/M05 A3041 RMK AO2 SLP300 T00391050 10156 20033 401611022 53008
KMCW 120453Z AUTO 00000KT 9SM CLR 04/M04 A3041 RMK AO2 SLP298 T00441044
KMCW 120353Z AUTO 18003KT 10SM CLR 06/M04 A3040 RMK AO2 SLP294 T00611039
KMCW 120253Z AUTO 19003KT 10SM CLR 07/M04 A3039 RMK AO2 SLP291 T00721044 53016
KMCW 120153Z AUTO 14004KT 10SM CLR 11/M06 A3037 RMK AO2 SLP284 T01061061
KMCW 120053Z AUTO 13004KT 10SM CLR 14/M08 A3035 RMK AO2 SLP277 T01391078
KMCW 112353Z AUTO VRB03KT 10SM CLR 16/M08 A3034 RMK AO2 SLP275 T01561083 10161 20139 53004
KMCW 112253Z AUTO 08008KT 10SM CLR 16/M08 A3033 RMK AO2 SLP274 T01611078
KMCW 112153Z AUTO VRB04G14KT 10SM CLR 16/M08 A3033 RMK AO2 SLP271 T01561078
KMCW 112053Z AUTO VRB03KT 10SM CLR 16/M07 A3033 RMK AO2 SLP272 T01561072 56012